Latest Weather Observations for Outer Harbor (Black Pole)

IDS60801

Issued at 11:31 pm CST Friday 28 April 2017 (issued every 30 minutes, with the page automatically refreshed every 10 minutes)

About weather observations | Map of weather stations | Latest weather observations for SA | Other Formats
Station Details ID: 023052 Name: BLACK POLE Lat: -34.73 Lon: 138.47 Height: 6.27 m
Data from the previous 72 hours. | See also: Recent months for locations in South Australia
Date/Time
CST
Temp
°C
App
Temp
°C
Dew
Point
°C
Rel
Hum
%
Delta-T
°C
Wind Press
QNH
hPa
Press
MSL
hPa
Rain since
9am
mm
Dir  Spd
km/h
Gust
km/h
Spd
kts
Gust
kts
28/11:30pm - - - - - WSW 20 24 11 13 - - -
28/11:00pm - - - - - WSW 22 28 12 15 - - -
28/10:30pm - - - - - WSW 26 32 14 17 - - -
28/10:00pm - - - - - S 9 17 5 9 - - -
28/09:30pm - - - - - SSW 13 20 7 11 - - -
28/09:00pm - - - - - SSW 13 19 7 10 - - -
28/08:30pm - - - - - WSW 15 19 8 10 - - -
28/08:00pm - - - - - SW 11 17 6 9 - - -
28/07:30pm - - - - - SW 9 13 5 7 - - -
28/07:00pm - - - - - SW 7 9 4 5 - - -
28/06:30pm - - - - - SW 7 11 4 6 - - -
28/06:00pm - - - - - SSW 9 13 5 7 - - -
28/05:30pm - - - - - SSW 9 15 5 8 - - -
28/05:00pm - - - - - S 17 22 9 12 - - -
28/04:30pm - - - - - SW 24 28 13 15 - - -
28/04:00pm - - - - - SW 19 22 10 12 - - -
28/03:30pm - - - - - SSW 15 20 8 11 - - -
28/03:00pm - - - - - S 15 19 8 10 - - -
28/02:30pm - - - - - S 19 22 10 12 - - -
28/02:00pm - - - - - SSW 20 26 11 14 - - -
28/01:30pm - - - - - SW 20 24 11 13 - - -
28/01:00pm - - - - - SW 17 20 9 11 - - -
28/12:30pm - - - - - SW 20 24 11 13 - - -
28/12:00pm - - - - - W 2 4 1 2 - - -
28/11:30am - - - - - NE 4 6 2 3 - - -
28/11:00am - - - - - ENE 9 11 5 6 - - -
28/10:30am - - - - - ENE 9 13 5 7 - - -
28/10:00am - - - - - NNE 9 9 5 5 - - -
28/09:30am - - - - - NNE 15 17 8 9 - - -
28/09:00am - - - - - NE 13 15 7 8 - - -
28/08:30am - - - - - ENE 15 19 8 10 - - -
28/08:00am - - - - - NE 15 19 8 10 - - -
28/07:30am - - - - - NNE 13 19 7 10 - - -
28/07:00am - - - - - NE 13 15 7 8 - - -
28/06:30am - - - - - NE 13 15 7 8 - - -
28/06:00am - - - - - ENE 13 17 7 9 - - -
28/05:30am - - - - - ENE 9 15 5 8 - - -
28/05:00am - - - - - WSW 9 15 5 8 - - -
28/04:30am - - - - - E 6 13 3 7 - - -
28/04:00am - - - - - WSW 13 20 7 11 - - -
28/03:30am - - - - - S 17 24 9 13 - - -
28/03:00am - - - - - S 24 35 13 19 - - -
28/02:30am - - - - - WSW 24 32 13 17 - - -
28/02:00am - - - - - WSW 24 30 13 16 - - -
28/01:30am - - - - - WSW 22 26 12 14 - - -
28/01:00am - - - - - WSW 17 22 9 12 - - -
28/12:30am - - - - - WSW 20 28 11 15 - - -
28/12:00am - - - - - W 20 26 11 14 - - -
 
Date/Time
CST
Temp
°C
App
Temp
°C
Dew
Point
°C
Rel
Hum
%
Delta-T
°C
Wind Press
QNH
hPa
Press
MSL
hPa
Rain since
9am
mm
Dir  Spd
km/h
Gust
km/h
Spd
kts
Gust
kts
27/11:30pm - - - - - WSW 19 26 10 14 - - -
27/11:00pm - - - - - WSW 22 28 12 15 - - -
27/10:30pm - - - - - WSW 13 20 7 11 - - -
27/10:00pm - - - - - W 15 19 8 10 - - -
27/09:30pm - - - - - W 17 20 9 11 - - -
27/09:00pm - - - - - W 17 22 9 12 - - -
27/08:30pm - - - - - WSW 20 26 11 14 - - -
27/08:00pm - - - - - WSW 24 30 13 16 - - -
27/07:30pm - - - - - SW 19 26 10 14 - - -
27/07:00pm - - - - - SW 11 17 6 9 - - -
27/06:30pm - - - - - WSW 11 17 6 9 - - -
27/06:00pm - - - - - WSW 13 19 7 10 - - -
27/05:30pm - - - - - SW 30 35 16 19 - - -
27/05:00pm - - - - - SSW 22 30 12 16 - - -
27/04:30pm - - - - - SSW 20 26 11 14 - - -
27/04:00pm - - - - - SSW 22 30 12 16 - - -
27/03:30pm - - - - - SW 19 24 10 13 - - -
27/03:00pm - - - - - SW 20 24 11 13 - - -
27/02:30pm - - - - - SW 22 30 12 16 - - -
27/02:00pm - - - - - SSW 13 19 7 10 - - -
27/01:30pm - - - - - SSW 13 17 7 9 - - -
27/01:00pm - - - - - S 15 22 8 12 - - -
27/12:30pm - - - - - S 13 15 7 8 - - -
27/12:00pm - - - - - SSE 7 11 4 6 - - -
27/11:30am - - - - - NNE 6 9 3 5 - - -
27/11:00am - - - - - NNE 11 13 6 7 - - -
27/10:30am - - - - - NNE 9 13 5 7 - - -
27/10:00am - - - - - NNW 17 20 9 11 - - -
27/09:30am - - - - - N 19 22 10 12 - - -
27/09:00am - - - - - NNE 11 17 6 9 - - -
27/08:30am - - - - - NNW 7 13 4 7 - - -
27/08:00am - - - - - NNE 9 15 5 8 - - -
27/07:30am - - - - - S 9 20 5 11 - - -
27/07:00am - - - - - NW 13 24 7 13 - - -
27/06:30am - - - - - NE 13 17 7 9 - - -
27/06:00am - - - - - SW 20 32 11 17 - - -
27/05:30am - - - - - N 9 15 5 8 - - -
27/05:00am - - - - - NNE 7 13 4 7 - - -
27/04:30am - - - - - ENE 11 17 6 9 - - -
27/04:00am - - - - - NE 9 17 5 9 - - -
27/03:30am - - - - - NNE 9 13 5 7 - - -
27/03:00am - - - - - SE 7 11 4 6 - - -
27/02:30am - - - - - ENE 2 4 1 2 - - -
27/02:00am - - - - - ESE 7 11 4 6 - - -
27/01:30am - - - - - ESE 9 13 5 7 - - -
27/01:00am - - - - - SE 11 13 6 7 - - -
27/12:30am - - - - - ESE 15 20 8 11 - - -
27/12:00am - - - - - SE 13 17 7 9 - - -
 
Date/Time
CST
Temp
°C
App
Temp
°C
Dew
Point
°C
Rel
Hum
%
Delta-T
°C
Wind Press
QNH
hPa
Press
MSL
hPa
Rain since
9am
mm
Dir  Spd
km/h
Gust
km/h
Spd
kts
Gust
kts
26/11:30pm - - - - - SE 19 24 10 13 - - -
26/11:00pm - - - - - SE 17 20 9 11 - - -
26/10:30pm - - - - - SSE 15 19 8 10 - - -
26/10:00pm - - - - - SSE 20 28 11 15 - - -
26/09:30pm - - - - - SSE 22 28 12 15 - - -
26/09:00pm - - - - - SSE 22 28 12 15 - - -
26/08:30pm - - - - - SSE 24 28 13 15 - - -
26/08:00pm - - - - - SSE 26 32 14 17 - - -
26/07:30pm - - - - - SSE 28 32 15 17 - - -
26/07:00pm - - - - - SSE 26 35 14 19 - - -
26/06:30pm - - - - - SSE 24 32 13 17 - - -
26/06:00pm - - - - - SSE 24 30 13 16 - - -
26/05:30pm - - - - - SSE 24 30 13 16 - - -
26/05:00pm - - - - - SSE 28 35 15 19 - - -
26/04:30pm - - - - - S 28 41 15 22 - - -
26/04:00pm - - - - - S 33 41 18 22 - - -
26/03:30pm - - - - - S 32 41 17 22 - - -
26/03:00pm - - - - - SSW 26 35 14 19 - - -
26/02:30pm - - - - - SSW 43 56 23 30 - - -
26/02:00pm - - - - - S 39 52 21 28 - - -
26/01:30pm - - - - - SSW 43 56 23 30 - - -
26/01:00pm - - - - - S 37 46 20 25 - - -
26/12:30pm - - - - - SSW 37 48 20 26 - - -
26/12:00pm - - - - - S 37 50 20 27 - - -
26/11:30am - - - - - S 44 54 24 29 - - -
26/11:00am - - - - - S 39 48 21 26 - - -
26/10:30am - - - - - SSW 44 56 24 30 - - -
26/10:00am - - - - - SSW 37 50 20 27 - - -
26/09:57am - - - - - SSW 35 50 19 27 - - -
26/09:38am - - - - - S 46 57 25 31 - - -
26/09:30am - - - - - SSW 48 59 26 32 - - -
26/09:00am - - - - - S 44 57 24 31 - - -
26/08:30am - - - - - SSW 48 57 26 31 - - -
26/08:00am - - - - - SSW 43 59 23 32 - - -
26/07:55am - - - - - SSW 46 59 25 32 - - -
26/07:30am - - - - - SSW 61 80 33 43 - - -
26/07:24am - - - - - SSW 52 72 28 39 - - -
26/07:00am - - - - - SSW 54 69 29 37 - - -
26/06:30am - - - - - SSW 50 63 27 34 - - -
26/06:00am - - - - - SW 52 74 28 40 - - -
26/05:30am - - - - - SW 50 70 27 38 - - -
26/05:00am - - - - - SSW 56 83 30 45 - - -
26/04:54am - - - - - SSW 56 74 30 40 - - -
26/04:30am - - - - - SW 56 69 30 37 - - -
26/04:09am - - - - - SSW 57 82 31 44 - - -
26/04:00am - - - - - SSW 56 70 30 38 - - -
26/03:30am - - - - - SW 57 72 31 39 - - -
26/03:02am - - - - - SW 59 78 32 42 - - -
26/03:00am - - - - - SW 57 72 31 39 - - -
26/02:30am - - - - - SSW 59 80 32 43 - - -
26/02:28am - - - - - SSW 59 80 32 43 - - -
26/02:00am - - - - - SW 56 72 30 39 - - -
26/01:51am - - - - - SW 52 72 28 39 - - -
26/01:30am - - - - - SSW 54 69 29 37 - - -
26/01:00am - - - - - SW 57 70 31 38 - - -
26/12:30am - - - - - SW 57 69 31 37 - - -
26/12:00am - - - - - SW 57 72 31 39 - - -

Other Formats:

Comma delimited format used in spreadsheet applications
http://www.bom.gov.au/fwo/IDS60801/IDS60801.95675.axf

JavaScript Object Notation format (JSON) in row-major order
http://www.bom.gov.au/fwo/IDS60801/IDS60801.95675.json